Wausaukee, Wisconsin
Current Conditions -  °F | °C
As of 6:35 AM on Monday 24 Nov 2014 (Local Time) from KMNM Reporting Station
Overcast Overcast  
Wind Chill: 36°   Ceiling: 300
Heat Index: 39°   Visibility: 10mi
Dew Point: 39°   Wind: 5mph
Humidity: 100%   Direction: 290°WNW
Pressure: 28.99"   Gusts: NA
Location:  45.37°N, 87.95°W
Report Text: KMNM 241235Z AUTO 29004KT 10SM OVC003 04/04 A2899 RMK AO1
Loading
Personal Weather Stations






























Interactive Weather Map New forecast layout! Learn more

10-Day Weather Forecast

Advertisements
Track Severe Weather on mobile